createdAt,value
2019-05-30T00:00:05.758Z,12.10
2019-05-30T00:02:21.486Z,12.10
2019-05-30T00:04:51.263Z,12.10
2019-05-30T00:07:20.802Z,12.00
2019-05-30T00:09:50.418Z,12.00
2019-05-30T00:12:19.962Z,12.00
2019-05-30T00:14:49.721Z,12.00
2019-05-30T00:17:19.265Z,11.90
2019-05-30T00:19:48.790Z,11.90
2019-05-30T00:22:18.378Z,11.90
2019-05-30T00:24:48.441Z,11.80
2019-05-30T00:27:17.971Z,11.80
2019-05-30T00:29:47.515Z,11.80
2019-05-30T00:32:17.523Z,11.70
2019-05-30T00:34:47.042Z,11.70
2019-05-30T00:37:16.575Z,11.60
2019-05-30T00:39:46.100Z,11.60
2019-05-30T00:42:15.692Z,11.60
2019-05-30T00:44:46.474Z,11.60
2019-05-30T00:47:16.000Z,11.60
2019-05-30T00:49:45.767Z,11.60
2019-05-30T00:52:15.420Z,11.60
2019-05-30T00:54:44.910Z,11.50
2019-05-30T00:57:14.435Z,11.50
2019-05-30T00:59:43.938Z,11.40
2019-05-30T01:02:13.723Z,11.40
2019-05-30T01:04:43.333Z,11.40
2019-05-30T01:07:12.935Z,11.30
2019-05-30T01:09:43.403Z,11.30
2019-05-30T01:12:12.919Z,11.20
2019-05-30T01:14:42.486Z,11.20
2019-05-30T01:17:12.082Z,11.10
2019-05-30T01:19:41.578Z,11.00
2019-05-30T01:22:11.151Z,11.00
2019-05-30T01:24:40.706Z,11.00
2019-05-30T01:27:10.246Z,10.90
2019-05-30T01:29:40.051Z,10.90
2019-05-30T01:32:28.907Z,10.80
2019-05-30T01:34:59.725Z,10.80
2019-05-30T01:37:29.434Z,10.70
2019-05-30T01:39:59.761Z,10.70
2019-05-30T01:42:30.395Z,10.70
2019-05-30T01:45:00.248Z,10.70
2019-05-30T01:47:29.911Z,10.70
2019-05-30T01:50:00.299Z,10.60
2019-05-30T01:52:30.339Z,10.60
2019-05-30T01:55:00.469Z,10.60
2019-05-30T01:57:30.347Z,10.60
2019-05-30T02:00:00.801Z,10.50
2019-05-30T02:02:30.359Z,10.50
2019-05-30T02:05:01.080Z,10.40
2019-05-30T02:07:31.170Z,10.40
2019-05-30T02:10:01.159Z,10.40
2019-05-30T02:12:30.790Z,10.30
2019-05-30T02:15:01.434Z,10.30
2019-05-30T02:17:32.158Z,10.30
2019-05-30T02:20:01.876Z,10.30
2019-05-30T02:22:31.558Z,10.30
2019-05-30T02:25:02.357Z,10.30
2019-05-30T02:27:32.103Z,10.30
2019-05-30T02:30:04.002Z,10.30
2019-05-30T02:32:32.934Z,10.30
2019-05-30T02:35:07.568Z,10.30
2019-05-30T02:37:36.886Z,10.30
2019-05-30T02:40:09.861Z,10.30
2019-05-30T02:42:37.682Z,10.30
2019-05-30T02:45:12.225Z,10.20
2019-05-30T02:47:41.227Z,10.20
2019-05-30T02:50:14.099Z,10.20
2019-05-30T02:52:43.842Z,10.10
2019-05-30T02:55:13.931Z,10.00
2019-05-30T02:57:43.667Z,10.00
2019-05-30T03:00:16.915Z,10.00
2019-05-30T03:03:15.405Z,9.90
2019-05-30T03:05:48.890Z,9.90
2019-05-30T03:08:18.395Z,10.00
2019-05-30T03:10:47.902Z,9.90
2019-05-30T03:13:17.388Z,9.90
2019-05-30T03:15:46.883Z,9.90
2019-05-30T03:18:16.414Z,10.00
2019-05-30T03:20:46.037Z,9.90
2019-05-30T03:23:16.514Z,9.90
2019-05-30T03:25:46.039Z,9.90
2019-05-30T03:28:15.567Z,9.90
2019-05-30T03:30:45.168Z,9.90
2019-05-30T03:33:34.902Z,9.90
2019-05-30T03:35:46.144Z,9.90
2019-05-30T03:38:15.838Z,9.90
2019-05-30T03:40:45.544Z,9.80
2019-05-30T03:43:15.933Z,9.80
2019-05-30T03:45:45.804Z,9.80
2019-05-30T03:48:16.528Z,9.90
2019-05-30T03:50:49.483Z,9.90
2019-05-30T03:53:19.330Z,9.90
2019-05-30T03:55:53.959Z,9.90
2019-05-30T03:58:33.757Z,9.90
2019-05-30T04:01:06.184Z,9.80
2019-05-30T04:03:41.351Z,9.80
2019-05-30T04:06:19.517Z,9.80
2019-05-30T04:08:50.068Z,9.80
2019-05-30T04:11:21.099Z,9.80
2019-05-30T04:13:52.472Z,9.80
2019-05-30T04:16:21.959Z,9.80
2019-05-30T04:18:51.524Z,9.80
2019-05-30T04:21:21.781Z,9.80
2019-05-30T04:23:51.420Z,9.80
2019-05-30T04:26:42.336Z,9.80
2019-05-30T04:29:12.381Z,9.80
2019-05-30T04:31:43.041Z,9.90
2019-05-30T04:34:13.160Z,9.90
2019-05-30T04:36:44.023Z,9.90
2019-05-30T04:39:15.152Z,10.10
2019-05-30T04:41:44.825Z,10.30
2019-05-30T04:44:16.065Z,10.70
2019-05-30T04:46:45.584Z,11.20
2019-05-30T04:49:16.905Z,11.70
2019-05-30T04:51:46.386Z,12.30
2019-05-30T04:54:16.934Z,13.00
2019-05-30T04:56:47.319Z,13.80
2019-05-30T04:59:17.524Z,14.60
2019-05-30T05:01:48.338Z,15.30
2019-05-30T05:04:19.421Z,16.10
2019-05-30T05:06:49.066Z,16.80
2019-05-30T05:09:20.144Z,17.60
2019-05-30T05:11:49.914Z,18.40
2019-05-30T05:14:20.556Z,19.10
2019-05-30T05:16:50.275Z,19.90
2019-05-30T05:19:22.409Z,20.60
2019-05-30T05:21:51.294Z,21.30
2019-05-30T05:24:21.459Z,21.90
2019-05-30T05:26:51.055Z,22.30
2019-05-30T05:29:21.790Z,22.80
2019-05-30T05:32:16.111Z,23.30
2019-05-30T05:34:45.923Z,23.80
2019-05-30T05:37:15.454Z,24.40
2019-05-30T05:39:44.991Z,24.90
2019-05-30T05:42:16.020Z,25.40
2019-05-30T05:44:53.281Z,25.90
2019-05-30T05:47:23.030Z,26.40
2019-05-30T05:49:52.578Z,26.80
2019-05-30T05:52:22.812Z,27.20
2019-05-30T05:54:52.374Z,27.60
2019-05-30T05:57:22.949Z,28.00
2019-05-30T05:59:52.618Z,28.40
2019-05-30T06:02:23.257Z,28.70
2019-05-30T06:04:52.923Z,28.90
2019-05-30T06:07:25.935Z,29.20
2019-05-30T06:09:55.435Z,29.60
2019-05-30T06:12:25.775Z,30.10
2019-05-30T06:14:55.670Z,30.60
2019-05-30T06:17:25.462Z,31.10
2019-05-30T06:19:54.975Z,31.50
2019-05-30T06:22:25.549Z,31.90
2019-05-30T06:24:55.218Z,32.40
2019-05-30T06:27:26.146Z,32.90
2019-05-30T06:29:55.946Z,33.40
2019-05-30T06:32:26.659Z,33.80
2019-05-30T06:34:56.595Z,34.30
2019-05-30T06:37:27.323Z,34.80
2019-05-30T06:39:57.014Z,35.20
2019-05-30T06:42:28.151Z,35.70
2019-05-30T06:44:57.794Z,36.00
2019-05-30T06:47:28.375Z,36.40
2019-05-30T06:49:58.466Z,36.80
2019-05-30T06:52:29.188Z,37.10
2019-05-30T06:54:59.074Z,37.40
2019-05-30T06:57:29.341Z,37.80
2019-05-30T07:00:06.040Z,38.10
2019-05-30T07:02:35.654Z,38.30
2019-05-30T07:05:05.853Z,38.50
2019-05-30T07:07:35.814Z,38.70
2019-05-30T07:10:06.140Z,38.90
2019-05-30T07:12:35.647Z,39.20
2019-05-30T07:15:06.298Z,39.40
2019-05-30T07:17:35.895Z,39.80
2019-05-30T07:20:06.446Z,40.10
2019-05-30T07:22:35.967Z,40.30
2019-05-30T07:25:05.778Z,40.40
2019-05-30T07:27:35.308Z,40.50
2019-05-30T07:30:05.306Z,40.70
2019-05-30T07:32:34.802Z,40.90
2019-05-30T07:35:07.174Z,41.10
2019-05-30T07:37:35.818Z,41.40
2019-05-30T07:40:07.525Z,41.60
2019-05-30T07:42:38.111Z,41.90
2019-05-30T07:45:08.638Z,42.10
2019-05-30T07:47:38.617Z,42.30
2019-05-30T07:50:09.460Z,42.70
2019-05-30T07:52:39.139Z,42.80
2019-05-30T07:55:08.841Z,42.90
2019-05-30T07:57:40.989Z,43.00
2019-05-30T08:00:10.539Z,42.90
2019-05-30T08:02:41.025Z,42.90
2019-05-30T08:05:23.553Z,42.90
2019-05-30T08:07:42.125Z,42.90
2019-05-30T08:10:12.625Z,42.90
2019-05-30T08:12:45.212Z,42.90
2019-05-30T08:15:14.811Z,42.90
2019-05-30T08:17:44.734Z,42.90
2019-05-30T08:20:14.651Z,42.90
2019-05-30T08:22:44.470Z,43.00
2019-05-30T08:25:14.303Z,43.10
2019-05-30T08:27:43.833Z,43.10
2019-05-30T08:30:14.004Z,43.20
2019-05-30T08:32:43.568Z,43.30
2019-05-30T08:35:13.186Z,43.60
2019-05-30T08:37:42.767Z,43.80
2019-05-30T08:40:12.375Z,44.10
2019-05-30T08:42:41.890Z,44.30
2019-05-30T08:45:11.813Z,44.40
2019-05-30T08:47:41.369Z,44.60
2019-05-30T08:50:10.923Z,44.80
2019-05-30T08:52:41.070Z,44.90
2019-05-30T08:55:10.790Z,45.00
2019-05-30T08:57:40.968Z,45.10
2019-05-30T09:00:10.961Z,45.00
2019-05-30T09:02:41.003Z,45.00
2019-05-30T09:05:10.882Z,45.00
2019-05-30T09:07:40.482Z,45.10
2019-05-30T09:10:10.110Z,45.10
2019-05-30T09:12:42.089Z,45.00
2019-05-30T09:15:11.074Z,44.80
2019-05-30T09:17:42.484Z,44.70
2019-05-30T09:20:14.106Z,44.60
2019-05-30T09:22:43.854Z,44.60
2019-05-30T09:25:13.588Z,44.80
2019-05-30T09:27:44.680Z,44.90
2019-05-30T09:30:14.715Z,44.90
2019-05-30T09:32:45.175Z,44.90
2019-05-30T09:35:15.282Z,44.90
2019-05-30T09:37:45.843Z,44.90
2019-05-30T09:40:15.871Z,45.10
2019-05-30T09:42:47.015Z,45.30
2019-05-30T09:45:17.257Z,45.40
2019-05-30T09:47:47.953Z,45.70
2019-05-30T09:50:18.537Z,45.80
2019-05-30T09:52:49.145Z,45.80
2019-05-30T09:55:19.426Z,45.80
2019-05-30T09:57:49.610Z,45.70
2019-05-30T10:00:20.451Z,45.70
2019-05-30T10:02:50.579Z,45.50
2019-05-30T10:05:24.203Z,45.40
2019-05-30T10:07:52.997Z,45.20
2019-05-30T10:10:23.213Z,45.10
2019-05-30T10:12:53.675Z,45.00
2019-05-30T10:15:40.000Z,44.80
2019-05-30T10:18:09.645Z,44.80
2019-05-30T10:20:39.397Z,44.60
2019-05-30T10:23:09.000Z,44.60
2019-05-30T10:25:38.510Z,44.50
2019-05-30T10:28:08.305Z,44.40
2019-05-30T10:30:37.838Z,44.20
2019-05-30T10:33:07.336Z,44.10
2019-05-30T10:35:36.847Z,44.00
2019-05-30T10:38:06.346Z,43.80
2019-05-30T10:40:36.238Z,43.70
2019-05-30T10:43:08.426Z,43.50
2019-05-30T10:45:38.684Z,43.20
2019-05-30T10:48:08.581Z,42.90
2019-05-30T10:50:38.089Z,42.60
2019-05-30T10:53:07.582Z,42.10
2019-05-30T10:55:37.126Z,41.80
2019-05-30T10:58:06.867Z,41.50
2019-05-30T11:00:50.537Z,41.30
2019-05-30T11:03:21.421Z,41.10
2019-05-30T11:05:59.421Z,40.90
2019-05-30T11:08:29.449Z,40.50
2019-05-30T11:10:58.971Z,40.20
2019-05-30T11:13:28.505Z,39.90
2019-05-30T11:15:58.939Z,39.70
2019-05-30T11:18:28.551Z,39.40
2019-05-30T11:20:59.107Z,39.20
2019-05-30T11:23:29.013Z,39.00
2019-05-30T11:25:58.902Z,38.70
2019-05-30T11:28:30.940Z,38.30
2019-05-30T11:31:04.198Z,38.00
2019-05-30T11:33:33.656Z,37.70
2019-05-30T11:36:13.106Z,37.40
2019-05-30T11:38:43.550Z,37.10
2019-05-30T11:41:14.335Z,36.70
2019-05-30T11:43:53.499Z,36.30
2019-05-30T11:46:25.108Z,35.90
2019-05-30T11:48:57.857Z,35.50
2019-05-30T11:51:32.921Z,35.20
2019-05-30T11:54:05.850Z,34.90
2019-05-30T11:56:40.139Z,34.60
2019-05-30T11:59:19.076Z,34.30
2019-05-30T12:01:50.248Z,33.90
2019-05-30T12:04:32.363Z,33.60
2019-05-30T12:07:35.450Z,33.40
2019-05-30T12:10:06.849Z,33.30
2019-05-30T12:12:36.619Z,33.10
2019-05-30T12:15:06.718Z,32.90
2019-05-30T12:17:38.137Z,32.60
2019-05-30T12:20:08.132Z,32.20
2019-05-30T12:22:38.844Z,32.00
2019-05-30T12:25:08.724Z,31.80
2019-05-30T12:27:46.050Z,31.50
2019-05-30T12:30:27.559Z,31.20
2019-05-30T12:32:58.330Z,30.90
2019-05-30T12:35:28.391Z,30.60
2019-05-30T12:38:06.587Z,30.20
2019-05-30T12:40:39.924Z,29.90
2019-05-30T12:43:13.725Z,29.80
2019-05-30T12:45:44.541Z,29.60
2019-05-30T12:48:38.921Z,29.50
2019-05-30T12:51:06.202Z,29.40
2019-05-30T12:53:35.805Z,29.20
2019-05-30T12:56:07.522Z,29.10
2019-05-30T12:58:38.194Z,29.00
2019-05-30T13:01:08.071Z,28.80
2019-05-30T13:03:38.593Z,28.70
2019-05-30T13:06:08.292Z,28.70
2019-05-30T13:08:37.922Z,28.60
2019-05-30T13:11:07.427Z,28.50
2019-05-30T13:13:36.992Z,28.30
2019-05-30T13:16:10.354Z,28.20
2019-05-30T13:18:40.819Z,28.10
2019-05-30T13:21:10.399Z,27.90
2019-05-30T13:23:40.007Z,27.80
2019-05-30T13:26:09.858Z,27.60
2019-05-30T13:28:41.655Z,27.50
2019-05-30T13:31:11.378Z,27.40
2019-05-30T13:33:41.173Z,27.30
2019-05-30T13:36:11.437Z,27.20
2019-05-30T13:38:41.429Z,27.10
2019-05-30T13:41:11.062Z,27.00
2019-05-30T13:43:41.075Z,26.90
2019-05-30T13:46:11.108Z,26.60
2019-05-30T13:48:40.768Z,26.50
2019-05-30T13:51:10.343Z,26.30
2019-05-30T13:53:39.956Z,26.20
2019-05-30T13:56:10.541Z,26.10
2019-05-30T13:58:40.525Z,26.10
2019-05-30T14:01:14.184Z,26.10
2019-05-30T14:03:43.843Z,26.10
2019-05-30T14:06:13.406Z,26.10
2019-05-30T14:08:42.918Z,26.10
2019-05-30T14:11:14.132Z,26.00
2019-05-30T14:13:43.721Z,26.10
2019-05-30T14:16:13.539Z,26.10
2019-05-30T14:18:43.097Z,26.10
2019-05-30T14:21:12.710Z,26.10
2019-05-30T14:23:47.490Z,26.10
2019-05-30T14:26:17.219Z,26.10
2019-05-30T14:28:47.007Z,26.20
2019-05-30T14:31:16.886Z,26.20
2019-05-30T14:33:46.842Z,26.20
2019-05-30T14:36:16.766Z,26.20
2019-05-30T14:38:57.992Z,26.20
2019-05-30T14:41:18.938Z,26.30
2019-05-30T14:43:48.474Z,26.20
2019-05-30T14:46:18.288Z,26.40
2019-05-30T14:48:48.145Z,26.40
2019-05-30T14:51:17.681Z,26.50
2019-05-30T14:53:47.557Z,26.50
2019-05-30T14:56:17.603Z,26.60
2019-05-30T14:58:47.608Z,26.70
2019-05-30T15:01:17.624Z,26.70
2019-05-30T15:03:47.439Z,26.70
2019-05-30T15:06:17.895Z,26.70
2019-05-30T15:08:47.772Z,26.70
2019-05-30T15:11:17.326Z,26.70
2019-05-30T15:13:47.089Z,26.70
2019-05-30T15:16:17.211Z,26.60
2019-05-30T15:18:47.019Z,26.70
2019-05-30T15:21:16.718Z,26.60
2019-05-30T15:23:46.596Z,26.50
2019-05-30T15:26:16.321Z,26.50
2019-05-30T15:28:46.062Z,26.40
2019-05-30T15:31:16.639Z,26.30
2019-05-30T15:33:46.947Z,26.20
2019-05-30T15:36:17.068Z,26.10
2019-05-30T15:38:47.060Z,26.10
2019-05-30T15:41:17.363Z,26.10
2019-05-30T15:43:47.575Z,26.10
2019-05-30T15:46:19.356Z,26.10
2019-05-30T15:48:48.870Z,26.10
2019-05-30T15:51:18.873Z,26.10
2019-05-30T15:53:48.714Z,26.10
2019-05-30T15:56:19.413Z,26.00
2019-05-30T15:58:49.570Z,26.00
2019-05-30T16:01:20.168Z,25.90
2019-05-30T16:03:49.755Z,25.90
2019-05-30T16:06:20.538Z,25.80
2019-05-30T16:08:50.420Z,25.80
2019-05-30T16:11:21.227Z,25.80
2019-05-30T16:13:51.072Z,25.80
2019-05-30T16:16:33.770Z,25.80
2019-05-30T16:18:51.866Z,25.80
2019-05-30T16:21:22.434Z,25.80
2019-05-30T16:23:52.288Z,25.80
2019-05-30T16:26:22.044Z,25.80
2019-05-30T16:28:51.915Z,25.80
2019-05-30T16:31:22.370Z,25.80
2019-05-30T16:33:53.163Z,25.90
2019-05-30T16:36:22.787Z,25.90
2019-05-30T16:38:52.554Z,25.90
2019-05-30T16:41:22.626Z,25.90
2019-05-30T16:43:52.699Z,25.90
2019-05-30T16:46:22.693Z,25.90
2019-05-30T16:48:54.335Z,25.80
2019-05-30T16:51:23.954Z,25.80
2019-05-30T16:53:53.527Z,25.80
2019-05-30T16:56:24.114Z,25.70
2019-05-30T16:58:53.716Z,25.70
2019-05-30T17:01:24.319Z,25.70
2019-05-30T17:03:56.220Z,25.70
2019-05-30T17:06:26.465Z,25.70
2019-05-30T17:08:56.145Z,25.60
2019-05-30T17:11:25.810Z,25.50
2019-05-30T17:13:55.544Z,25.50
2019-05-30T17:16:26.161Z,25.50
2019-05-30T17:18:55.833Z,25.40
2019-05-30T17:21:26.449Z,25.30
2019-05-30T17:23:56.514Z,25.20
2019-05-30T17:26:27.325Z,25.20
2019-05-30T17:28:57.099Z,25.10
2019-05-30T17:31:28.676Z,25.00
2019-05-30T17:33:58.380Z,25.00
2019-05-30T17:36:28.449Z,24.90
2019-05-30T17:38:59.465Z,24.90
2019-05-30T17:41:29.153Z,24.90
2019-05-30T17:43:58.788Z,24.80
2019-05-30T17:46:30.049Z,24.80
2019-05-30T17:49:01.929Z,24.80
2019-05-30T17:51:31.506Z,24.70
2019-05-30T17:54:01.117Z,24.70
2019-05-30T17:56:30.866Z,24.70
2019-05-30T17:59:00.552Z,24.70
2019-05-30T18:01:32.946Z,24.60
2019-05-30T18:04:02.958Z,24.50
2019-05-30T18:06:32.716Z,24.50
2019-05-30T18:09:02.830Z,24.40
2019-05-30T18:11:34.006Z,24.40
2019-05-30T18:14:03.638Z,24.30
2019-05-30T18:16:33.267Z,24.30
2019-05-30T18:19:03.021Z,24.20
2019-05-30T18:21:32.779Z,24.20
2019-05-30T18:24:02.888Z,24.10
2019-05-30T18:26:32.528Z,24.10
2019-05-30T18:29:02.694Z,24.10
2019-05-30T18:31:32.432Z,24.10
2019-05-30T18:34:02.763Z,24.00
2019-05-30T18:36:32.766Z,24.00
2019-05-30T18:39:03.080Z,24.00
2019-05-30T18:41:33.507Z,23.90
2019-05-30T18:44:05.669Z,23.90
2019-05-30T18:46:38.420Z,23.90
2019-05-30T18:49:07.773Z,23.90
2019-05-30T18:51:38.659Z,23.90
2019-05-30T18:54:08.802Z,23.80
2019-05-30T18:56:39.328Z,23.80
2019-05-30T18:59:09.063Z,23.80
2019-05-30T19:01:39.635Z,23.80
2019-05-30T19:04:09.322Z,23.70
2019-05-30T19:06:39.133Z,23.70
2019-05-30T19:09:09.251Z,23.70
2019-05-30T19:11:39.013Z,23.60
2019-05-30T19:14:08.711Z,23.60
2019-05-30T19:16:38.310Z,23.60
2019-05-30T19:19:07.916Z,23.60
2019-05-30T19:21:37.532Z,23.60
2019-05-30T19:24:07.461Z,23.50
2019-05-30T19:26:37.049Z,23.50
2019-05-30T19:29:06.849Z,23.40
2019-05-30T19:31:36.960Z,23.50
2019-05-30T19:34:07.681Z,23.40
2019-05-30T19:36:37.368Z,23.40
2019-05-30T19:39:07.159Z,23.40
2019-05-30T19:41:53.431Z,23.40
2019-05-30T19:44:09.090Z,23.30
2019-05-30T19:46:38.970Z,23.30
2019-05-30T19:49:08.931Z,23.30
2019-05-30T19:51:39.241Z,23.20
2019-05-30T19:54:09.099Z,23.20
2019-05-30T19:56:40.832Z,23.20
2019-05-30T19:59:09.934Z,23.20
2019-05-30T20:01:40.049Z,23.10
2019-05-30T20:04:09.790Z,23.10
2019-05-30T20:06:41.221Z,23.10
2019-05-30T20:09:19.458Z,23.00
2019-05-30T20:12:02.572Z,23.00
2019-05-30T20:14:21.370Z,23.00
2019-05-30T20:16:51.143Z,22.90
2019-05-30T20:19:20.677Z,22.90
2019-05-30T20:21:50.368Z,22.80
2019-05-30T20:24:19.960Z,22.80
2019-05-30T20:26:52.480Z,22.70
2019-05-30T20:29:22.201Z,22.70
2019-05-30T20:32:12.530Z,22.60
2019-05-30T20:34:43.083Z,22.60
2019-05-30T20:37:14.078Z,22.50
2019-05-30T20:39:43.686Z,22.40
2019-05-30T20:42:19.224Z,22.40
2019-05-30T20:44:44.569Z,22.40
2019-05-30T20:47:19.167Z,22.30
2019-05-30T20:49:48.762Z,22.20
2019-05-30T20:52:18.325Z,22.10
2019-05-30T20:54:47.839Z,22.10
2019-05-30T20:57:17.370Z,22.10
2019-05-30T20:59:47.163Z,22.10
2019-05-30T21:02:17.913Z,22.10
2019-05-30T21:04:47.707Z,22.10
2019-05-30T21:07:17.514Z,22.00
2019-05-30T21:09:47.295Z,22.00
2019-05-30T21:12:17.233Z,21.90
2019-05-30T21:14:48.081Z,21.90
2019-05-30T21:17:17.696Z,21.90
2019-05-30T21:19:47.278Z,21.80
2019-05-30T21:22:17.881Z,21.80
2019-05-30T21:24:47.445Z,21.80
2019-05-30T21:27:17.095Z,21.70
2019-05-30T21:29:47.596Z,21.70
2019-05-30T21:32:19.733Z,21.60
2019-05-30T21:34:49.836Z,21.60
2019-05-30T21:37:19.662Z,21.50
2019-05-30T21:39:49.509Z,21.50
2019-05-30T21:42:19.127Z,21.40
2019-05-30T21:44:52.313Z,21.40
2019-05-30T21:47:20.093Z,21.30
2019-05-30T21:49:49.610Z,21.30
2019-05-30T21:52:19.135Z,21.30
2019-05-30T21:54:48.662Z,21.20
2019-05-30T21:57:18.288Z,21.20
2019-05-30T21:59:48.932Z,21.10
2019-05-30T22:02:19.427Z,21.10
2019-05-30T22:04:49.102Z,21.00
2019-05-30T22:07:18.615Z,21.00
2019-05-30T22:09:49.326Z,20.90
2019-05-30T22:12:19.035Z,20.90
2019-05-30T22:14:49.810Z,20.90
2019-05-30T22:17:19.584Z,20.80
2019-05-30T22:19:50.037Z,20.80
2019-05-30T22:22:19.590Z,20.80
2019-05-30T22:24:50.314Z,20.70
2019-05-30T22:27:19.986Z,20.70
2019-05-30T22:29:50.607Z,20.70
2019-05-30T22:32:20.205Z,20.70
2019-05-30T22:34:50.774Z,20.60
2019-05-30T22:37:20.424Z,20.60
2019-05-30T22:39:50.944Z,20.50
2019-05-30T22:42:20.573Z,20.50
2019-05-30T22:44:50.235Z,20.50
2019-05-30T22:47:19.870Z,20.40
2019-05-30T22:49:50.662Z,20.40
2019-05-30T22:52:20.397Z,20.30
2019-05-30T22:54:51.138Z,20.20
2019-05-30T22:57:20.759Z,20.20
2019-05-30T22:59:50.966Z,20.20
2019-05-30T23:02:21.565Z,20.10
2019-05-30T23:04:52.281Z,20.10
2019-05-30T23:07:22.784Z,20.10
2019-05-30T23:09:53.975Z,20.10
2019-05-30T23:12:23.625Z,20.10
2019-05-30T23:14:56.764Z,20.00
2019-05-30T23:17:27.847Z,20.00
2019-05-30T23:19:57.443Z,20.00
2019-05-30T23:22:26.978Z,20.00
2019-05-30T23:24:57.528Z,20.10
2019-05-30T23:27:27.070Z,20.10
2019-05-30T23:29:57.771Z,20.10
2019-05-30T23:32:27.622Z,20.10
2019-05-30T23:34:57.161Z,20.10
2019-05-30T23:37:26.792Z,20.10
2019-05-30T23:39:56.866Z,20.10
2019-05-30T23:42:26.457Z,20.10
2019-05-30T23:44:56.010Z,20.10
2019-05-30T23:47:26.627Z,20.10
2019-05-30T23:49:56.355Z,20.10
2019-05-30T23:52:26.117Z,20.20
2019-05-30T23:54:56.271Z,20.10
2019-05-30T23:57:25.925Z,20.20
2019-05-30T23:59:56.845Z,20.20
